createdAt,value
2023-04-01T00:01:16.030Z,15.30
2023-04-01T00:03:43.008Z,12.52
2023-04-01T00:06:11.094Z,12.77
2023-04-01T00:08:37.676Z,12.48
2023-04-01T00:11:04.220Z,12.10
2023-04-01T00:13:30.846Z,13.43
2023-04-01T00:15:57.618Z,9.48
2023-04-01T00:18:24.930Z,12.17
2023-04-01T00:20:52.444Z,10.80
2023-04-01T00:23:19.968Z,11.13
2023-04-01T00:25:48.916Z,12.40
2023-04-01T00:28:17.568Z,15.40
2023-04-01T00:30:44.242Z,14.80
2023-04-01T00:33:10.828Z,18.42
2023-04-01T00:35:37.586Z,16.73
2023-04-01T00:38:04.841Z,15.77
2023-04-01T00:40:33.865Z,15.48
2023-04-01T00:43:01.531Z,15.73
2023-04-01T00:45:32.151Z,14.75
2023-04-01T00:48:03.775Z,15.82
2023-04-01T00:50:33.194Z,19.33
2023-04-01T00:53:01.805Z,18.63
2023-04-01T00:55:31.402Z,21.10
2023-04-01T00:57:59.412Z,22.38
2023-04-01T01:00:27.613Z,17.33
2023-04-01T01:02:54.248Z,16.17
2023-04-01T01:05:27.607Z,15.60
2023-04-01T01:08:01.035Z,16.20
2023-04-01T01:10:32.865Z,13.63
2023-04-01T01:13:22.610Z,22.92
2023-04-01T01:15:58.893Z,14.27
2023-04-01T01:18:37.079Z,14.23
2023-04-01T01:21:25.437Z,23.53
2023-04-01T01:24:18.035Z,21.98
2023-04-01T01:26:53.164Z,20.67
2023-04-01T01:29:38.066Z,13.45
2023-04-01T01:32:39.334Z,20.30
2023-04-01T01:35:17.572Z,19.67
2023-04-01T01:37:46.286Z,12.30
2023-04-01T01:40:15.839Z,11.10
2023-04-01T01:42:47.692Z,11.02
2023-04-01T01:45:18.792Z,10.82
2023-04-01T01:47:47.238Z,9.13
2023-04-01T01:50:14.845Z,8.60
2023-04-01T01:52:41.408Z,5.63
2023-04-01T01:55:27.264Z,3.53
2023-04-01T01:57:54.018Z,6.78
2023-04-01T02:00:21.702Z,5.07
2023-04-01T02:02:49.927Z,7.90
2023-04-01T02:05:21.772Z,3.80
2023-04-01T02:07:56.946Z,5.03
2023-04-01T02:10:27.743Z,4.65
2023-04-01T02:12:58.866Z,5.30
2023-04-01T02:15:31.765Z,3.58
2023-04-01T02:17:58.834Z,3.92
2023-04-01T02:20:28.061Z,3.95
2023-04-01T02:22:56.845Z,4.70
2023-04-01T02:25:34.989Z,2.17
2023-04-01T02:28:05.071Z,3.15
2023-04-01T02:30:35.173Z,4.60
2023-04-01T02:33:03.496Z,4.18
2023-04-01T02:35:30.531Z,3.50
2023-04-01T02:37:57.526Z,6.37
2023-04-01T02:40:24.021Z,4.75
2023-04-01T02:42:50.552Z,3.92
2023-04-01T02:45:17.144Z,4.60
2023-04-01T02:47:43.586Z,3.75
2023-04-01T02:50:10.926Z,4.97
2023-04-01T02:52:37.596Z,4.93
2023-04-01T02:55:05.165Z,4.95
2023-04-01T02:57:31.709Z,5.90
2023-04-01T02:59:58.175Z,4.05
2023-04-01T03:02:24.858Z,3.93
2023-04-01T03:04:51.384Z,2.58
2023-04-01T03:07:17.826Z,5.65
2023-04-01T03:09:44.314Z,4.28
2023-04-01T03:12:10.678Z,3.22
2023-04-01T03:14:37.079Z,3.90
2023-04-01T03:17:03.500Z,5.68
2023-04-01T03:19:30.047Z,2.83
2023-04-01T03:21:56.418Z,3.53
2023-04-01T03:24:22.842Z,2.63
2023-04-01T03:26:49.450Z,3.37
2023-04-01T03:29:16.907Z,3.28
2023-04-01T03:31:43.654Z,2.55
2023-04-01T03:34:10.257Z,2.45
2023-04-01T03:36:36.949Z,4.32
2023-04-01T03:39:04.657Z,2.90
2023-04-01T03:41:31.722Z,3.40
2023-04-01T03:43:58.249Z,7.25
2023-04-01T03:46:25.036Z,5.97
2023-04-01T03:48:51.922Z,4.35
2023-04-01T03:51:18.547Z,4.80
2023-04-01T03:53:45.078Z,4.82
2023-04-01T03:56:11.970Z,6.30
2023-04-01T03:58:39.898Z,6.72
2023-04-01T04:01:17.904Z,6.72
2023-04-01T04:03:45.218Z,7.63
2023-04-01T04:06:13.949Z,6.13
2023-04-01T04:08:41.153Z,6.50
2023-04-01T04:11:07.827Z,5.45
2023-04-01T04:13:34.406Z,7.50
2023-04-01T04:16:00.889Z,5.33
2023-04-01T04:18:27.322Z,6.07
2023-04-01T04:20:53.823Z,4.80
2023-04-01T04:23:20.760Z,6.35
2023-04-01T04:25:57.603Z,4.47
2023-04-01T04:28:24.243Z,6.27
2023-04-01T04:30:50.805Z,5.68
2023-04-01T04:33:17.227Z,5.55
2023-04-01T04:35:43.679Z,4.75
2023-04-01T04:38:10.302Z,6.25
2023-04-01T04:40:38.396Z,4.03
2023-04-01T04:43:05.106Z,5.05
2023-04-01T04:45:32.177Z,4.03
2023-04-01T04:47:58.891Z,6.07
2023-04-01T04:50:26.368Z,6.45
2023-04-01T04:52:52.936Z,5.67
2023-04-01T04:55:19.415Z,8.93
2023-04-01T04:57:45.908Z,5.68
2023-04-01T05:00:13.142Z,5.97
2023-04-01T05:02:39.805Z,6.38
2023-04-01T05:05:06.752Z,6.03
2023-04-01T05:07:34.290Z,4.68
2023-04-01T05:10:01.553Z,5.00
2023-04-01T05:12:27.990Z,6.03
2023-04-01T05:14:54.409Z,5.32
2023-04-01T05:17:20.822Z,3.37
2023-04-01T05:19:47.611Z,5.68
2023-04-01T05:22:14.113Z,5.88
2023-04-01T05:24:40.650Z,4.80
2023-04-01T05:27:07.046Z,4.68
2023-04-01T05:29:33.739Z,5.63
2023-04-01T05:32:00.159Z,6.35
2023-04-01T05:34:26.842Z,6.45
2023-04-01T05:36:53.333Z,4.40
2023-04-01T05:39:19.741Z,4.57
2023-04-01T05:41:46.603Z,5.50
2023-04-01T05:44:13.620Z,5.63
2023-04-01T05:46:40.153Z,4.57
2023-04-01T05:49:06.669Z,4.28
2023-04-01T05:51:33.073Z,5.22
2023-04-01T05:53:59.510Z,3.53
2023-04-01T05:56:26.048Z,7.18
2023-04-01T05:58:54.311Z,4.88
2023-04-01T06:01:21.464Z,2.88
2023-04-01T06:03:48.052Z,3.07
2023-04-01T06:06:17.486Z,2.50
2023-04-01T06:08:44.259Z,3.20
2023-04-01T06:11:50.217Z,2.60
2023-04-01T06:14:32.718Z,2.30
2023-04-01T06:17:27.063Z,3.88
2023-04-01T06:20:25.750Z,2.77
2023-04-01T06:23:10.848Z,2.75
2023-04-01T06:25:52.499Z,3.70
2023-04-01T06:28:43.145Z,3.50
2023-04-01T06:31:28.310Z,3.15
2023-04-01T06:34:15.416Z,5.20
2023-04-01T06:37:19.314Z,3.35
2023-04-01T06:40:07.542Z,3.97
2023-04-01T06:42:47.355Z,4.00
2023-04-01T06:45:19.811Z,2.60
2023-04-01T06:48:04.091Z,2.40
2023-04-01T06:50:56.774Z,2.88
2023-04-01T06:53:38.321Z,2.53
2023-04-01T06:56:11.874Z,2.40
2023-04-01T06:58:47.941Z,2.75
2023-04-01T07:01:35.205Z,2.30
2023-04-01T07:04:18.137Z,3.60
2023-04-01T07:06:55.078Z,1.98
2023-04-01T07:09:33.444Z,2.60
2023-04-01T07:12:07.057Z,2.35
2023-04-01T07:14:37.695Z,2.37
2023-04-01T07:17:17.672Z,2.75
2023-04-01T07:19:47.923Z,2.60
2023-04-01T07:22:26.476Z,3.03
2023-04-01T07:24:54.979Z,2.42
2023-04-01T07:27:21.442Z,2.50
2023-04-01T07:29:48.431Z,3.30
2023-04-01T07:32:17.634Z,3.45
2023-04-01T07:34:56.107Z,3.30
2023-04-01T07:37:28.367Z,4.68
2023-04-01T07:40:31.726Z,2.97
2023-04-01T07:43:19.892Z,4.60
2023-04-01T07:46:20.624Z,3.15
2023-04-01T07:48:55.029Z,2.72
2023-04-01T07:51:35.639Z,3.42
2023-04-01T07:54:09.264Z,3.33
2023-04-01T07:56:42.219Z,3.38
2023-04-01T07:59:35.168Z,3.30
2023-04-01T08:02:34.104Z,4.20
2023-04-01T08:05:22.475Z,4.88
2023-04-01T08:08:29.399Z,5.37
2023-04-01T08:11:27.053Z,4.18
2023-04-01T08:14:18.447Z,5.10
2023-04-01T08:16:59.322Z,4.55
2023-04-01T08:19:54.056Z,4.95
2023-04-01T08:22:31.934Z,5.30
2023-04-01T08:25:04.226Z,5.40
2023-04-01T08:27:45.051Z,5.18
2023-04-01T08:30:25.296Z,5.13
2023-04-01T08:32:58.069Z,5.32
2023-04-01T08:35:42.014Z,5.77
2023-04-01T08:38:32.152Z,5.03
2023-04-01T08:41:01.972Z,5.78
2023-04-01T08:43:53.102Z,5.45
2023-04-01T08:46:35.505Z,6.13
2023-04-01T08:49:33.039Z,6.00
2023-04-01T08:52:08.625Z,5.07
2023-04-01T08:54:50.715Z,6.43
2023-04-01T08:57:44.876Z,6.60
2023-04-01T09:00:31.839Z,4.38
2023-04-01T09:03:23.653Z,5.60
2023-04-01T09:06:35.359Z,5.70
2023-04-01T09:09:07.441Z,5.10
2023-04-01T09:11:59.851Z,5.10
2023-04-01T09:14:44.795Z,4.70
2023-04-01T09:17:28.030Z,5.33
2023-04-01T09:20:19.762Z,4.25
2023-04-01T09:23:16.949Z,5.53
2023-04-01T09:25:55.636Z,5.45
2023-04-01T09:28:40.989Z,3.83
2023-04-01T09:31:16.654Z,4.60
2023-04-01T09:34:11.027Z,3.42
2023-04-01T09:36:55.933Z,4.63
2023-04-01T09:39:38.285Z,8.50
2023-04-01T09:42:34.084Z,5.03
2023-04-01T09:45:21.761Z,5.17
2023-04-01T09:48:00.685Z,3.95
2023-04-01T09:50:29.944Z,4.15
2023-04-01T09:53:28.870Z,6.10
2023-04-01T09:56:26.499Z,4.82
2023-04-01T09:59:10.915Z,4.67
2023-04-01T10:01:58.917Z,6.10
2023-04-01T10:04:25.348Z,5.82
2023-04-01T10:07:16.003Z,5.35
2023-04-01T10:09:51.616Z,6.22
2023-04-01T10:12:49.662Z,5.60
2023-04-01T10:15:57.905Z,5.40
2023-04-01T10:18:45.451Z,6.18
2023-04-01T10:21:26.590Z,5.35
2023-04-01T10:24:26.647Z,6.30
2023-04-01T10:27:29.693Z,3.90
2023-04-01T10:30:29.937Z,5.22
2023-04-01T10:33:33.780Z,6.15
2023-04-01T10:36:36.866Z,6.03
2023-04-01T10:39:22.408Z,5.25
2023-04-01T10:42:26.555Z,9.83
2023-04-01T10:45:17.598Z,4.00
2023-04-01T10:48:03.053Z,4.35
2023-04-01T10:51:03.305Z,5.63
2023-04-01T10:53:42.455Z,4.75
2023-04-01T10:56:34.326Z,3.27
2023-04-01T10:59:19.575Z,3.80
2023-04-01T11:02:09.967Z,2.90
2023-04-01T11:05:20.906Z,3.97
2023-04-01T11:08:25.219Z,3.33
2023-04-01T11:11:26.658Z,2.67
2023-04-01T11:14:17.524Z,3.15
2023-04-01T11:17:20.912Z,2.50
2023-04-01T11:19:49.964Z,1.13
2023-04-01T11:22:20.910Z,1.23
2023-04-01T11:25:12.868Z,1.10
2023-04-01T11:27:54.491Z,1.48
2023-04-01T11:30:25.012Z,1.83
2023-04-01T11:33:04.898Z,1.85
2023-04-01T11:35:48.698Z,3.33
2023-04-01T11:38:33.767Z,1.17
2023-04-01T11:41:18.804Z,1.08
2023-04-01T11:43:52.760Z,0.75
2023-04-01T11:46:30.757Z,0.90
2023-04-01T11:49:19.144Z,0.70
2023-04-01T11:52:06.769Z,0.43
2023-04-01T11:54:39.255Z,0.75
2023-04-01T11:57:22.080Z,0.90
2023-04-01T12:00:15.319Z,1.33
2023-04-01T12:03:09.780Z,1.85
2023-04-01T12:05:54.953Z,1.70
2023-04-01T12:08:24.114Z,1.30
2023-04-01T12:11:23.590Z,1.48
2023-04-01T12:14:45.553Z,1.90
2023-04-01T12:17:22.061Z,2.78
2023-04-01T12:20:13.362Z,2.47
2023-04-01T12:23:24.754Z,3.15
2023-04-01T12:25:53.980Z,3.63
2023-04-01T12:28:42.119Z,4.05
2023-04-01T12:31:08.506Z,4.07
2023-04-01T12:33:53.383Z,4.73
2023-04-01T12:36:31.556Z,5.40
2023-04-01T12:39:29.186Z,6.40
2023-04-01T12:42:13.859Z,6.57
2023-04-01T12:45:18.042Z,6.30
2023-04-01T12:48:03.002Z,7.73
2023-04-01T12:50:40.314Z,6.82
2023-04-01T12:53:12.780Z,7.28
2023-04-01T12:55:44.202Z,8.43
2023-04-01T12:58:18.229Z,6.78
2023-04-01T13:00:45.232Z,8.43
2023-04-01T13:03:33.897Z,9.05
2023-04-01T13:06:24.862Z,8.57
2023-04-01T13:09:10.191Z,7.72
2023-04-01T13:11:51.748Z,8.40
2023-04-01T13:14:31.205Z,7.30
2023-04-01T13:17:36.401Z,5.65
2023-04-01T13:20:24.236Z,5.88
2023-04-01T13:22:56.606Z,5.15
2023-04-01T13:25:36.955Z,5.80
2023-04-01T13:28:18.621Z,3.67
2023-04-01T13:31:30.960Z,3.78
2023-04-01T13:34:16.134Z,3.97
2023-04-01T13:37:16.921Z,4.53
2023-04-01T13:39:53.811Z,3.45
2023-04-01T13:42:27.315Z,3.57
2023-04-01T13:45:17.027Z,3.90
2023-04-01T13:48:05.260Z,3.92
2023-04-01T13:50:38.004Z,3.08
2023-04-01T13:53:29.844Z,3.08
2023-04-01T13:56:17.595Z,4.20
2023-04-01T13:58:51.015Z,2.78
2023-04-01T14:01:53.821Z,2.83
2023-04-01T14:04:29.190Z,3.50
2023-04-01T14:07:10.007Z,2.75
2023-04-01T14:09:57.712Z,2.70
2023-04-01T14:12:45.939Z,3.53
2023-04-01T14:15:39.774Z,3.88
2023-04-01T14:18:27.911Z,4.38
2023-04-01T14:21:37.109Z,3.72
2023-04-01T14:24:25.392Z,5.43
2023-04-01T14:27:09.037Z,4.72
2023-04-01T14:29:50.690Z,5.75
2023-04-01T14:32:42.830Z,3.55
2023-04-01T14:35:51.386Z,3.55
2023-04-01T14:38:32.982Z,3.50
2023-04-01T14:41:22.469Z,7.07
2023-04-01T14:44:26.737Z,4.10
2023-04-01T14:47:08.700Z,4.07
2023-04-01T14:49:40.627Z,3.78
2023-04-01T14:52:35.752Z,5.23
2023-04-01T14:55:19.956Z,3.90
2023-04-01T14:58:08.282Z,3.70
2023-04-01T15:01:08.716Z,3.75
2023-04-01T15:04:10.664Z,4.55
2023-04-01T15:07:16.544Z,4.73
2023-04-01T15:09:58.244Z,4.30
2023-04-01T15:12:35.353Z,5.60
2023-04-01T15:15:17.957Z,4.93
2023-04-01T15:17:48.741Z,4.55
2023-04-01T15:20:41.957Z,3.67
2023-04-01T15:23:16.921Z,3.67
2023-04-01T15:26:34.044Z,4.43
2023-04-01T15:29:38.711Z,3.30
2023-04-01T15:32:46.707Z,2.83
2023-04-01T15:35:37.250Z,4.40
2023-04-01T15:38:12.094Z,2.90
2023-04-01T15:40:52.532Z,3.03
2023-04-01T15:43:44.272Z,2.90
2023-04-01T15:46:42.468Z,2.72
2023-04-01T15:49:12.289Z,3.37
2023-04-01T15:52:04.124Z,2.88
2023-04-01T15:54:53.561Z,2.35
2023-04-01T15:57:25.309Z,2.45
2023-04-01T16:00:18.362Z,2.40
2023-04-01T16:02:49.902Z,2.17
2023-04-01T16:05:38.028Z,3.10
2023-04-01T16:08:17.956Z,2.97
2023-04-01T16:10:56.293Z,3.20
2023-04-01T16:13:32.563Z,3.50
2023-04-01T16:16:18.320Z,3.50
2023-04-01T16:19:03.101Z,3.40
2023-04-01T16:22:03.158Z,3.20
2023-04-01T16:24:56.737Z,3.60
2023-04-01T16:27:23.145Z,4.25
2023-04-01T16:29:56.954Z,2.60
2023-04-01T16:32:30.515Z,3.25
2023-04-01T16:35:14.262Z,2.97
2023-04-01T16:38:20.411Z,3.05
2023-04-01T16:41:11.915Z,4.82
2023-04-01T16:43:56.415Z,3.27
2023-04-01T16:46:36.281Z,3.72
2023-04-01T16:49:26.742Z,4.75
2023-04-01T16:51:57.803Z,3.30
2023-04-01T16:54:38.111Z,5.30
2023-04-01T16:57:10.743Z,3.83
2023-04-01T16:59:45.614Z,3.90
2023-04-01T17:02:18.419Z,3.17
2023-04-01T17:04:55.742Z,4.75
2023-04-01T17:07:39.640Z,3.92
2023-04-01T17:10:19.538Z,4.10
2023-04-01T17:12:58.045Z,3.40
2023-04-01T17:15:52.310Z,3.45
2023-04-01T17:18:33.674Z,3.75
2023-04-01T17:21:18.950Z,3.17
2023-04-01T17:24:00.735Z,2.77
2023-04-01T17:27:03.184Z,2.85
2023-04-01T17:30:00.586Z,2.85
2023-04-01T17:32:47.676Z,2.45
2023-04-01T17:35:44.697Z,3.70
2023-04-01T17:38:51.456Z,2.97
2023-04-01T17:41:42.188Z,2.83
2023-04-01T17:44:33.302Z,3.85
2023-04-01T17:47:23.366Z,3.35
2023-04-01T17:50:10.810Z,3.15
2023-04-01T17:52:46.554Z,2.53
2023-04-01T17:55:18.623Z,2.70
2023-04-01T17:58:01.644Z,2.88
2023-04-01T18:00:53.893Z,2.97
2023-04-01T18:03:45.982Z,2.90
2023-04-01T18:06:20.802Z,2.80
2023-04-01T18:08:58.303Z,2.45
2023-04-01T18:11:40.380Z,2.60
2023-04-01T18:14:34.991Z,3.47
2023-04-01T18:17:23.618Z,2.65
2023-04-01T18:20:18.053Z,2.57
2023-04-01T18:22:49.437Z,3.30
2023-04-01T18:25:23.563Z,3.55
2023-04-01T18:28:22.257Z,3.47
2023-04-01T18:30:57.705Z,2.80
2023-04-01T18:33:36.138Z,3.63
2023-04-01T18:36:27.051Z,4.57
2023-04-01T18:38:58.133Z,3.33
2023-04-01T18:41:48.565Z,3.70
2023-04-01T18:44:35.565Z,4.13
2023-04-01T18:47:21.046Z,3.53
2023-04-01T18:50:01.584Z,3.05
2023-04-01T18:52:45.108Z,4.80
2023-04-01T18:55:44.072Z,3.40
2023-04-01T18:58:18.489Z,3.22
2023-04-01T19:00:55.554Z,3.33
2023-04-01T19:03:33.817Z,3.72
2023-04-01T19:06:09.196Z,3.55
2023-04-01T19:08:40.227Z,4.13
2023-04-01T19:11:31.557Z,4.28
2023-04-01T19:14:12.046Z,2.90
2023-04-01T19:16:59.405Z,3.72
2023-04-01T19:19:34.423Z,3.25
2023-04-01T19:22:42.917Z,2.63
2023-04-01T19:25:48.243Z,2.78
2023-04-01T19:28:21.084Z,3.07
2023-04-01T19:31:09.613Z,2.83
2023-04-01T19:34:00.522Z,3.13
2023-04-01T19:36:39.492Z,3.75
2023-04-01T19:39:43.318Z,3.15
2023-04-01T19:42:18.913Z,3.40
2023-04-01T19:45:07.886Z,3.55
2023-04-01T19:48:02.669Z,3.72
2023-04-01T19:50:40.523Z,3.92
2023-04-01T19:53:30.292Z,5.07
2023-04-01T19:56:13.088Z,3.80
2023-04-01T19:59:13.100Z,4.57
2023-04-01T20:01:59.146Z,3.90
2023-04-01T20:04:36.006Z,4.45
2023-04-01T20:07:20.439Z,4.47
2023-04-01T20:10:07.142Z,4.67
2023-04-01T20:13:04.214Z,5.75
2023-04-01T20:15:46.566Z,5.32
2023-04-01T20:18:38.373Z,5.80
2023-04-01T20:21:18.886Z,5.70
2023-04-01T20:23:56.535Z,5.90
2023-04-01T20:26:28.906Z,6.53
2023-04-01T20:29:18.619Z,5.90
2023-04-01T20:32:08.476Z,7.90
2023-04-01T20:35:04.332Z,6.10
2023-04-01T20:37:57.560Z,6.87
2023-04-01T20:40:36.412Z,6.05
2023-04-01T20:43:20.810Z,5.65
2023-04-01T20:46:08.439Z,6.90
2023-04-01T20:48:46.954Z,6.30
2023-04-01T20:51:16.414Z,5.97
2023-04-01T20:54:15.086Z,6.00
2023-04-01T20:57:00.562Z,5.53
2023-04-01T20:59:54.081Z,5.63
2023-04-01T21:02:39.658Z,6.60
2023-04-01T21:05:34.196Z,5.47
2023-04-01T21:08:24.535Z,7.93
2023-04-01T21:11:10.066Z,7.30
2023-04-01T21:14:03.401Z,5.43
2023-04-01T21:16:42.575Z,5.70
2023-04-01T21:19:30.448Z,5.40
2023-04-01T21:22:24.400Z,5.03
2023-04-01T21:24:58.033Z,5.30
2023-04-01T21:27:46.534Z,5.63
2023-04-01T21:30:16.034Z,5.50
2023-04-01T21:32:54.208Z,6.87
2023-04-01T21:36:10.925Z,5.10
2023-04-01T21:39:01.447Z,4.82
2023-04-01T21:41:54.258Z,4.88
2023-04-01T21:44:51.513Z,5.97
2023-04-01T21:47:51.723Z,6.43
2023-04-01T21:50:23.975Z,5.35
2023-04-01T21:53:18.372Z,6.47
2023-04-01T21:55:53.788Z,9.50
2023-04-01T21:58:41.379Z,7.97
2023-04-01T22:01:32.142Z,5.67
2023-04-01T22:04:35.002Z,5.43
2023-04-01T22:07:19.568Z,6.47
2023-04-01T22:10:21.982Z,5.10
2023-04-01T22:13:00.527Z,7.60
2023-04-01T22:15:56.538Z,6.93
2023-04-01T22:18:35.180Z,9.30
2023-04-01T22:21:17.430Z,9.50
2023-04-01T22:24:30.591Z,7.82
2023-04-01T22:27:13.141Z,5.90
2023-04-01T22:29:50.090Z,5.47
2023-04-01T22:32:28.139Z,5.72
2023-04-01T22:35:13.736Z,6.15
2023-04-01T22:37:58.406Z,6.40
2023-04-01T22:40:35.949Z,5.53
2023-04-01T22:43:08.612Z,6.33
2023-04-01T22:46:00.259Z,6.38
2023-04-01T22:48:41.977Z,8.00
2023-04-01T22:51:22.676Z,6.63
2023-04-01T22:53:55.928Z,9.77
2023-04-01T22:56:30.234Z,8.07
2023-04-01T22:59:10.016Z,6.30
2023-04-01T23:01:43.509Z,9.57
2023-04-01T23:04:18.350Z,12.77
2023-04-01T23:06:51.211Z,9.55
2023-04-01T23:09:28.498Z,6.87
2023-04-01T23:12:26.656Z,9.55
2023-04-01T23:15:00.058Z,10.15
2023-04-01T23:17:38.534Z,7.40
2023-04-01T23:20:33.404Z,11.82
2023-04-01T23:23:16.219Z,8.57
2023-04-01T23:26:04.286Z,9.30
2023-04-01T23:28:44.273Z,8.93
2023-04-01T23:31:33.951Z,10.10
2023-04-01T23:34:04.489Z,7.45
2023-04-01T23:36:38.204Z,8.93
2023-04-01T23:39:22.293Z,7.47
2023-04-01T23:41:49.732Z,11.60
2023-04-01T23:44:16.881Z,10.27
2023-04-01T23:46:47.514Z,12.55
2023-04-01T23:49:26.568Z,11.50
2023-04-01T23:52:24.437Z,11.73
2023-04-01T23:54:59.146Z,12.40
2023-04-01T23:57:30.948Z,14.05
